EW9430 Weather Reports


time (UTC)temp
F
wind
direction
speed
knots
gust
knots
rain 1hr
in
rain 24hr
in
rain mn
in
humidity
%
barometer
mb
20260507095015 53 202 0.0 1.7 0.00 0.00 0.00 74 1015.0
20260507094016 53 58 0.0 2.6 0.00 0.00 0.00 74 1015.2
20260507093015 53 57 0.0 1.7 0.00 0.00 0.00 75 1015.2
20260507092036 53 62 0.0 2.6 0.00 0.00 0.00 75 1015.3
20260507091016 53 185 0.0 1.7 0.00 0.00 0.00 75 1015.3
20260507090016 54 0.0 0.0 0.00 0.00 0.00 76 1015.3
20260507085055 54 2 0.0 3.5 0.00 0.00 0.00 76 1015.3
20260507084015 54 0.0 2.6 0.00 0.00 0.00 76 1015.3
20260507083016 54 90 0.0 1.7 0.00 0.00 0.00 76 1015.3
20260507082016 54 90 0.0 1.7 0.00 0.00 0.00 77 1015.3
20260507081017 54 79 0.0 1.7 0.00 0.00 0.00 78 1015.3
20260507080015 54 96 0.0 1.7 0.00 0.00 0.00 78 1015.3
20260507075016 54 63 0.0 1.7 0.00 0.00 0.00 78 1015.3
20260507074036 54 0.0 0.0 0.00 0.00 0.00 78 1015.3
20260507073017 55 220 0.0 3.5 0.00 0.00 0.00 78 1015.3
20260507072036 55 67 0.0 1.7 0.00 0.00 0.00 78 1015.3
20260507071015 55 0.0 0.0 0.00 0.00 0.00 78 1015.1
20260507070016 55 360 0.0 1.7 0.00 0.00 0.00 77 1015.0
20260507065015 55 2 0.0 1.7 0.00 0.00 0.00 77 1015.3
20260507064016 56 80 0.0 2.6 0.00 0.00 0.00 76 1015.2
20260507063016 56 45 0.0 0.9 0.00 0.00 0.00 76 1015.3
20260507062016 56 347 0.9 3.5 0.00 0.00 0.00 76 1015.3
20260507061016 56 316 0.0 1.7 0.00 0.00 0.00 77 1015.3
20260507060015 57 67 0.0 0.9 0.00 0.00 0.00 78 1015.2
20260507055016 57 360 0.0 2.6 0.00 0.00 0.00 77 1015.1
20260507054016 57 358 0.9 1.7 0.00 0.00 0.00 77 1015.1
20260507053036 57 33 0.0 1.7 0.00 0.00 0.00 76 1015.0
20260507052015 57 344 0.9 2.6 0.00 0.00 0.00 76 1015.0
20260507051017 58 337 0.9 3.5 0.00 0.00 0.00 76 1015.0
20260507050117 58 337 1.7 3.5 0.00 0.00 0.00 75 1015.1
20260507045016 58 347 1.7 4.3 0.00 0.00 0.00 75 1015.1
20260507044016 58 343 1.7 4.3 0.00 0.00 0.00 75 1015.0
20260507043015 59 345 0.9 3.5 0.00 0.00 0.00 74 1015.0
20260507042016 59 343 1.7 3.5 0.00 0.00 0.00 74 1014.9
20260507041016 60 346 0.9 3.5 0.00 0.00 0.00 74 1014.6
20260507040015 61 351 0.9 5.2 0.00 0.00 0.00 73 1014.5
20260507035036 61 342 0.9 2.6 0.00 0.00 0.00 73 1014.3
20260507034016 61 337 1.7 5.2 0.00 0.00 0.00 73 1014.3
20260507033017 62 15 0.9 2.6 0.00 0.00 0.00 72 1014.0
20260507032015 62 360 0.0 1.7 0.00 0.00 0.00 71 1013.9
20260507031015 62 45 0.9 3.5 0.00 0.00 0.00 71 1013.7
20260507030017 63 337 0.9 2.6 0.00 0.00 0.00 71 1013.6
20260507025035 63 337 0.9 1.7 0.00 0.00 0.00 70 1013.6
20260507024016 63 337 0.0 1.7 0.00 0.00 0.00 69 1013.6
20260507023036 64 337 0.9 2.6 0.00 0.00 0.00 68 1013.5
20260507022036 65 5 0.9 2.6 0.00 0.00 0.00 68 1013.6
20260507021015 65 45 0.0 1.7 0.00 0.00 0.00 67 1013.5
20260507020016 66 21 0.9 3.5 0.00 0.00 0.00 67 1013.6
20260507015015 66 344 0.9 3.5 0.00 0.00 0.00 66 1013.6
20260507014017 66 360 0.9 3.5 0.00 0.00 0.00 67 1013.6
20260507013016 67 0.0 1.7 0.00 0.00 0.00 67 1013.6
20260507012016 67 340 1.7 4.3 0.00 0.00 0.00 65 1013.3
20260507011016 68 3 0.9 3.5 0.00 0.00 0.00 64 1013.3
20260507010016 69 359 0.9 3.5 0.00 0.00 0.00 65 1013.3
20260507005036 69 225 0.0 0.9 0.00 0.00 0.00 65 1013.3
20260507004017 69 225 0.0 1.7 0.00 0.00 0.00 64 1013.1
20260507003015 69 225 0.0 1.7 0.00 0.00 0.00 65 1013.3
20260507002037 69 225 0.9 1.7 0.00 0.00 0.00 64 1013.3
20260507001015 69 225 0.9 2.6 0.00 0.00 0.00 65 1013.3
20260507000016 69 225 0.9 2.6 0.00 0.00 0.00 65 1013.2
20260506235016 69 225 0.0 1.7 0.00 0.00 0.00 66 1013.3
20260506234015 68 234 0.9 2.6 0.00 0.00 0.00 66 1013.3
20260506233015 68 225 0.0 2.6 0.00 0.00 0.00 66 1013.2
20260506232016 68 225 0.9 2.6 0.00 0.00 0.00 66 1013.3
20260506231016 68 202 0.0 1.7 0.00 0.00 0.00 65 1013.4
20260506230017 69 226 0.0 2.6 0.00 0.00 0.00 64 1013.6
20260506225016 69 225 0.0 2.6 0.00 0.00 0.00 63 1013.6
20260506224015 70 231 0.9 3.5 0.00 0.00 0.00 64 1013.6
20260506223059 69 235 1.7 4.3 0.00 0.00 0.00 66 1013.6
20260506222016 68 225 0.0 2.6 0.00 0.00 0.00 67 1013.8
20260506221015 67 234 0.9 3.5 0.00 0.00 0.00 68 1013.9
20260506220017 67 236 0.9 3.5 0.00 0.00 0.00 67 1013.9
20260506215017 67 243 0.9 3.5 0.00 0.00 0.00 68 1013.8
20260506214016 67 225 0.9 2.6 0.00 0.00 0.00 68 1013.9
20260506213016 67 227 0.9 2.6 0.00 0.00 0.00 68 1014.0
20260506212016 68 225 0.9 2.6 0.00 0.00 0.00 67 1014.3
20260506211036 68 225 0.9 3.5 0.00 0.00 0.00 68 1014.3
20260506210015 66 249 0.0 2.6 0.00 0.00 0.00 69 1014.3
20260506205016 66 225 1.7 3.5 0.00 0.00 0.00 70 1014.3
20260506204019 65 238 0.9 3.5 0.00 0.00 0.00 71 1014.3
20260506203015 65 234 1.7 4.3 0.00 0.00 0.00 71 1014.3
20260506202016 65 232 0.9 3.5 0.00 0.00 0.00 74 1014.3
20260506201015 64 224 0.9 1.7 0.00 0.00 0.00 75 1014.4
20260506200016 63 0.0 0.0 0.00 0.00 0.00 74 1014.6
20260506195015 64 270 0.0 0.9 0.00 0.00 0.00 74 1014.8
20260506194016 64 236 0.9 1.7 0.00 0.00 0.00 73 1014.7
20260506193016 65 247 0.9 2.6 0.00 0.00 0.00 72 1014.6
20260506192017 65 214 0.0 1.7 0.00 0.00 0.00 72 1014.6
20260506191017 64 226 1.7 3.5 0.00 0.00 0.00 72 1014.6
20260506190057 64 235 1.7 3.5 0.00 0.00 0.00 74 1014.6
20260506185037 63 239 0.9 2.6 0.00 0.00 0.00 75 1014.5
20260506184015 62 226 1.7 2.6 0.00 0.00 0.00 78 1014.5
20260506183017 61 245 0.9 2.6 0.00 0.00 0.00 78 1014.6
20260506182016 61 234 0.0 1.7 0.00 0.00 0.00 78 1014.6
20260506181036 61 226 0.9 1.7 0.00 0.00 0.00 79 1014.6
20260506180016 60 229 0.9 2.6 0.00 0.00 0.00 79 1014.7
20260506175016 60 225 0.9 2.6 0.00 0.00 0.00 79 1014.6
20260506174016 60 270 0.0 0.9 0.00 0.00 0.00 80 1014.6
20260506173015 60 225 0.9 2.6 0.00 0.00 0.00 80 1014.4
20260506172016 59 247 0.0 1.7 0.00 0.00 0.00 82 1014.4
20260506171016 58 22 0.0 1.7 0.00 0.00 0.00 82 1014.6
20260506170055 58 0.0 0.9 0.00 0.00 0.00 82 1014.6
20260506165137 58 0.0 0.0 0.00 0.00 0.00 82 1014.6
20260506164017 59 225 0.9 2.6 0.00 0.00 0.00 82 1014.6
20260506163016 59 225 0.0 1.7 0.00 0.00 0.00 83 1014.6
20260506162017 59 247 0.0 0.9 0.00 0.00 0.00 84 1014.3
20260506161016 58 247 0.0 1.7 0.00 0.00 0.00 85 1014.3
20260506160016 57 225 0.9 1.7 0.00 0.00 0.00 86 1014.2
20260506155016 57 234 0.9 3.5 0.00 0.00 0.00 87 1013.8
20260506154020 56 247 0.9 1.7 0.00 0.00 0.00 88 1013.9
20260506153017 55 247 0.0 0.9 0.00 0.00 0.00 88 1014.3
20260506152036 55 247 0.0 0.9 0.00 0.00 0.00 88 1014.6
20260506151036 55 244 0.0 0.9 0.00 0.00 0.00 88 1014.6
20260506150016 55 239 0.9 2.6 0.00 0.00 0.00 88 1014.3
20260506145015 55 0.0 0.0 0.00 0.00 0.00 88 1014.4
20260506144057 55 0.0 0.0 0.00 0.00 0.00 88 1014.3
20260506143016 55 0.0 0.0 0.00 0.00 0.00 89 1014.0
20260506142016 55 0.0 0.9 0.00 0.00 0.00 89 1013.7
20260506141016 55 247 0.0 1.7 0.00 0.00 0.00 88 1013.6
20260506140016 55 225 1.7 2.6 0.00 0.00 0.00 88 1013.5
20260506135056 55 228 0.9 2.6 0.00 0.00 0.00 88 1013.6
20260506134015 56 246 0.9 2.6 0.00 0.00 0.00 89 1013.4
20260506133015 56 0.0 0.9 0.00 0.00 0.00 89 1013.3
20260506132036 56 0.0 0.0 0.00 0.00 0.00 88 1013.3
20260506131015 57 0.0 0.0 0.00 0.00 0.00 87 1013.1
20260506130036 57 0.0 0.0 0.00 0.00 0.00 87 1013.3
20260506125015 57 0.0 0.0 0.00 0.00 0.00 86 1013.1
20260506124015 57 0.0 0.0 0.00 0.00 0.00 86 1012.9
20260506123015 57 0.0 0.0 0.00 0.00 0.00 86 1012.9
20260506122015 57 0.0 0.0 0.00 0.00 0.00 86 1013.2
20260506121015 57 0.0 0.9 0.00 0.00 0.00 86 1012.9
20260506120016 57 22 0.0 2.6 0.00 0.00 0.00 87 1012.9
20260506115015 57 0.0 0.0 0.00 0.00 0.00 87 1012.8
20260506114016 57 0.0 0.0 0.00 0.00 0.00 86 1012.6
20260506113015 57 0.0 0.0 0.00 0.00 0.00 86 1012.6
20260506112121 57 0.0 0.0 0.00 0.00 0.00 86 1012.4
20260506111036 57 0.0 0.0 0.00 0.00 0.00 86 1012.2
20260506110016 57 0.0 0.0 0.00 0.00 0.00 86 1012.2
20260506105036 57 0.0 0.0 0.00 0.00 0.00 86 1012.1
20260506104016 58 0.0 0.0 0.00 0.00 0.00 85 1011.9
20260506103016 58 0.0 0.0 0.00 0.00 0.00 85 1011.8
20260506102016 58 0.0 0.0 0.00 0.00 0.00 85 1011.6
20260506101015 58 0.0 0.0 0.00 0.00 0.00 85 1011.6
20260506100035 58 0.0 0.0 0.00 0.00 0.00 85 1011.6